createdAt,value
2022-07-30T00:00:42.430Z,22.35
2022-07-30T00:01:46.965Z,22.35
2022-07-30T00:02:51.482Z,22.34
2022-07-30T00:04:03.396Z,22.31
2022-07-30T00:05:08.000Z,22.29
2022-07-30T00:06:12.549Z,22.27
2022-07-30T00:07:17.024Z,22.25
2022-07-30T00:08:22.096Z,22.23
2022-07-30T00:09:26.908Z,22.21
2022-07-30T00:10:31.392Z,22.2
2022-07-30T00:11:35.895Z,22.18
2022-07-30T00:12:40.376Z,22.17
2022-07-30T00:13:44.889Z,22.14
2022-07-30T00:14:49.384Z,22.12
2022-07-30T00:15:53.952Z,22.1
2022-07-30T00:17:00.019Z,22.08
2022-07-30T00:18:05.534Z,22.06
2022-07-30T00:19:10.480Z,22.02
2022-07-30T00:20:16.402Z,21.99
2022-07-30T00:21:35.651Z,21.95
2022-07-30T00:22:43.158Z,21.93
2022-07-30T00:24:01.153Z,21.91
2022-07-30T00:25:06.818Z,21.91
2022-07-30T00:26:11.258Z,21.89
2022-07-30T00:27:15.737Z,21.86
2022-07-30T00:28:20.226Z,21.82
2022-07-30T00:29:24.682Z,21.78
2022-07-30T00:30:29.356Z,21.75
2022-07-30T00:31:33.918Z,21.73
2022-07-30T00:32:38.428Z,21.68
2022-07-30T00:33:42.933Z,21.63
2022-07-30T00:34:47.432Z,21.57
2022-07-30T00:35:51.989Z,21.56
2022-07-30T00:36:56.526Z,21.53
2022-07-30T00:38:01.024Z,21.51
2022-07-30T00:39:05.506Z,21.49
2022-07-30T00:40:09.984Z,21.48
2022-07-30T00:41:15.965Z,21.46
2022-07-30T00:42:20.366Z,21.45
2022-07-30T00:43:24.831Z,21.43
2022-07-30T00:44:29.389Z,21.42
2022-07-30T00:45:34.001Z,21.42
2022-07-30T00:46:38.662Z,21.41
2022-07-30T00:47:43.191Z,21.41
2022-07-30T00:48:47.932Z,21.4
2022-07-30T00:49:52.512Z,21.36
2022-07-30T00:50:57.425Z,21.36
2022-07-30T00:52:02.090Z,21.35
2022-07-30T00:53:06.610Z,21.33
2022-07-30T00:54:11.079Z,21.33
2022-07-30T00:55:15.639Z,21.31
2022-07-30T00:56:20.158Z,21.3
2022-07-30T00:57:26.280Z,21.29
2022-07-30T00:58:30.677Z,21.27
2022-07-30T00:59:35.174Z,21.26
2022-07-30T01:00:39.771Z,21.24
2022-07-30T01:01:44.385Z,21.23
2022-07-30T01:02:49.117Z,21.21
2022-07-30T01:03:53.612Z,21.21
2022-07-30T01:05:03.638Z,21.19
2022-07-30T01:06:14.693Z,21.17
2022-07-30T01:07:18.893Z,21.16
2022-07-30T01:08:23.362Z,21.16
2022-07-30T01:09:27.850Z,21.14
2022-07-30T01:10:32.346Z,21.13
2022-07-30T01:11:36.825Z,21.12
2022-07-30T01:12:41.325Z,21.1
2022-07-30T01:13:45.897Z,21.09
2022-07-30T01:14:50.368Z,21.07
2022-07-30T01:15:54.916Z,21.06
2022-07-30T01:17:00.018Z,21.05
2022-07-30T01:18:04.890Z,21.03
2022-07-30T01:19:09.395Z,21.02
2022-07-30T01:20:13.909Z,21.01
2022-07-30T01:21:18.445Z,21
2022-07-30T01:22:30.339Z,20.98
2022-07-30T01:23:35.799Z,20.97
2022-07-30T01:24:40.301Z,20.96
2022-07-30T01:25:44.770Z,20.96
2022-07-30T01:26:49.263Z,20.96
2022-07-30T01:27:53.699Z,20.94
2022-07-30T01:28:58.242Z,20.94
2022-07-30T01:30:02.830Z,20.93
2022-07-30T01:31:07.312Z,20.92
2022-07-30T01:32:11.824Z,20.91
2022-07-30T01:33:16.391Z,20.9
2022-07-30T01:34:21.200Z,20.89
2022-07-30T01:35:25.748Z,20.88
2022-07-30T01:36:32.710Z,20.87
2022-07-30T01:37:37.100Z,20.86
2022-07-30T01:38:41.610Z,20.85
2022-07-30T01:39:46.443Z,20.84
2022-07-30T01:40:50.952Z,20.83
2022-07-30T01:41:55.401Z,20.82
2022-07-30T01:42:59.886Z,20.79
2022-07-30T01:44:04.488Z,20.78
2022-07-30T01:45:08.937Z,20.77
2022-07-30T01:46:13.993Z,20.75
2022-07-30T01:47:18.628Z,20.75
2022-07-30T01:48:23.137Z,20.73
2022-07-30T01:49:27.649Z,20.72
2022-07-30T01:50:32.184Z,20.72
2022-07-30T01:51:38.041Z,20.72
2022-07-30T01:52:42.453Z,20.71
2022-07-30T01:53:46.934Z,20.7
2022-07-30T01:55:02.593Z,20.7
2022-07-30T01:56:17.143Z,20.69
2022-07-30T01:57:21.365Z,20.69
2022-07-30T01:58:25.825Z,20.7
2022-07-30T01:59:33.823Z,20.71
2022-07-30T02:00:38.331Z,20.69
2022-07-30T02:01:42.864Z,20.68
2022-07-30T02:02:47.314Z,20.68
2022-07-30T02:03:52.150Z,20.66
2022-07-30T02:04:56.738Z,20.65
2022-07-30T02:06:01.266Z,20.63
2022-07-30T02:07:05.770Z,20.61
2022-07-30T02:08:10.265Z,20.59
2022-07-30T02:09:14.743Z,20.58
2022-07-30T02:10:21.024Z,20.56
2022-07-30T02:11:25.427Z,20.54
2022-07-30T02:12:29.999Z,20.53
2022-07-30T02:13:34.514Z,20.51
2022-07-30T02:14:38.993Z,20.49
2022-07-30T02:15:43.483Z,20.48
2022-07-30T02:16:48.136Z,20.48
2022-07-30T02:17:52.713Z,20.46
2022-07-30T02:18:59.364Z,20.45
2022-07-30T02:21:51.469Z,20.42
2022-07-30T02:22:56.006Z,20.4
2022-07-30T02:24:00.459Z,20.41
2022-07-30T02:25:05.608Z,20.4
2022-07-30T02:26:10.117Z,20.39
2022-07-30T02:27:14.595Z,20.38
2022-07-30T02:28:19.095Z,20.36
2022-07-30T02:29:23.598Z,20.34
2022-07-30T02:30:28.113Z,20.33
2022-07-30T02:31:32.796Z,20.31
2022-07-30T02:32:37.384Z,20.31
2022-07-30T02:33:49.270Z,20.29
2022-07-30T02:34:53.465Z,20.27
2022-07-30T02:35:57.952Z,20.26
2022-07-30T02:37:03.848Z,20.26
2022-07-30T02:38:08.339Z,20.24
2022-07-30T02:39:12.803Z,20.23
2022-07-30T02:40:17.315Z,20.22
2022-07-30T02:41:21.783Z,20.21
2022-07-30T02:42:26.278Z,20.2
2022-07-30T02:43:36.649Z,20.18
2022-07-30T02:44:40.903Z,20.16
2022-07-30T02:45:45.343Z,20.14
2022-07-30T02:46:50.190Z,20.14
2022-07-30T02:47:55.325Z,20.13
2022-07-30T02:48:59.980Z,20.12
2022-07-30T02:50:04.649Z,20.11
2022-07-30T02:51:09.144Z,20.1
2022-07-30T02:52:13.629Z,20.08
2022-07-30T02:53:18.122Z,20.06
2022-07-30T02:54:22.623Z,20.05
2022-07-30T02:55:27.114Z,20.02
2022-07-30T02:56:31.698Z,20.01
2022-07-30T02:57:43.705Z,19.99
2022-07-30T02:58:47.975Z,19.98
2022-07-30T02:59:52.502Z,19.96
2022-07-30T03:00:57.310Z,19.95
2022-07-30T03:02:02.068Z,19.93
2022-07-30T03:03:06.629Z,19.92
2022-07-30T03:04:11.097Z,19.91
2022-07-30T03:05:15.567Z,19.9
2022-07-30T03:06:20.123Z,19.89
2022-07-30T03:07:24.564Z,19.87
2022-07-30T03:08:29.115Z,19.87
2022-07-30T03:09:51.241Z,19.84
2022-07-30T03:10:56.448Z,19.82
2022-07-30T03:12:00.923Z,19.82
2022-07-30T03:13:05.371Z,19.81
2022-07-30T03:14:09.877Z,19.8
2022-07-30T03:15:17.160Z,19.79
2022-07-30T03:16:21.717Z,19.78
2022-07-30T03:17:26.317Z,19.75
2022-07-30T03:18:30.839Z,19.74
2022-07-30T03:19:35.308Z,19.73
2022-07-30T03:20:39.833Z,19.72
2022-07-30T03:21:44.342Z,19.7
2022-07-30T03:22:48.846Z,19.69
2022-07-30T03:23:53.348Z,19.68
2022-07-30T03:24:57.888Z,19.65
2022-07-30T03:26:02.379Z,19.63
2022-07-30T03:27:06.827Z,19.61
2022-07-30T03:28:11.326Z,19.59
2022-07-30T03:29:21.625Z,19.58
2022-07-30T03:30:26.218Z,19.56
2022-07-30T03:31:38.088Z,19.53
2022-07-30T03:32:43.171Z,19.52
2022-07-30T03:33:47.658Z,19.53
2022-07-30T03:34:52.349Z,19.51
2022-07-30T03:35:56.839Z,19.51
2022-07-30T03:37:02.518Z,19.49
2022-07-30T03:38:07.522Z,19.49
2022-07-30T03:39:11.995Z,19.48
2022-07-30T03:40:19.225Z,19.47
2022-07-30T03:41:23.614Z,19.46
2022-07-30T03:42:28.111Z,19.45
2022-07-30T03:43:34.411Z,19.44
2022-07-30T03:44:39.113Z,19.42
2022-07-30T03:45:43.672Z,19.43
2022-07-30T03:46:48.409Z,19.42
2022-07-30T03:47:53.053Z,19.41
2022-07-30T03:48:57.769Z,19.4
2022-07-30T03:50:02.373Z,19.4
2022-07-30T03:51:06.913Z,19.38
2022-07-30T03:52:11.374Z,19.37
2022-07-30T03:53:15.899Z,19.36
2022-07-30T03:54:20.416Z,19.35
2022-07-30T03:55:24.885Z,19.33
2022-07-30T03:56:29.442Z,19.32
2022-07-30T03:57:33.949Z,19.32
2022-07-30T03:58:38.451Z,19.31
2022-07-30T03:59:42.996Z,19.28
2022-07-30T04:00:47.493Z,19.28
2022-07-30T04:01:52.204Z,19.26
2022-07-30T04:02:56.903Z,19.26
2022-07-30T04:04:01.443Z,19.25
2022-07-30T04:05:06.033Z,19.23
2022-07-30T04:06:10.541Z,19.23
2022-07-30T04:07:15.097Z,19.23
2022-07-30T04:08:21.317Z,19.22
2022-07-30T04:09:25.718Z,19.21
2022-07-30T04:10:30.206Z,19.21
2022-07-30T04:11:42.019Z,19.2
2022-07-30T04:12:46.364Z,19.21
2022-07-30T04:13:50.820Z,19.21
2022-07-30T04:14:55.363Z,19.22
2022-07-30T04:16:38.567Z,19.22
2022-07-30T04:17:24.895Z,19.21
2022-07-30T04:18:29.393Z,19.23
2022-07-30T04:19:33.847Z,19.24
2022-07-30T04:20:38.353Z,19.24
2022-07-30T04:21:42.827Z,19.22
2022-07-30T04:22:47.320Z,19.21
2022-07-30T04:24:04.208Z,19.19
2022-07-30T04:25:09.832Z,19.19
2022-07-30T04:26:24.208Z,19.18
2022-07-30T04:27:28.655Z,19.16
2022-07-30T04:28:33.111Z,19.16
2022-07-30T04:29:37.600Z,19.16
2022-07-30T04:30:42.100Z,19.13
2022-07-30T04:31:47.033Z,19.12
2022-07-30T04:32:52.231Z,19.11
2022-07-30T04:34:05.032Z,19.09
2022-07-30T04:35:09.225Z,19.09
2022-07-30T04:36:16.668Z,19.08
2022-07-30T04:37:21.227Z,19.08
2022-07-30T04:38:25.703Z,19.08
2022-07-30T04:39:30.192Z,19.08
2022-07-30T04:40:34.690Z,19.08
2022-07-30T04:41:50.124Z,19.08
2022-07-30T04:42:54.457Z,19.08
2022-07-30T04:43:58.965Z,19.08
2022-07-30T04:45:03.437Z,19.09
2022-07-30T04:46:08.109Z,19.09
2022-07-30T04:47:13.910Z,19.1
2022-07-30T04:48:18.344Z,19.11
2022-07-30T04:49:23.142Z,19.12
2022-07-30T04:50:27.703Z,19.15
2022-07-30T04:51:32.224Z,19.17
2022-07-30T04:52:36.687Z,19.19
2022-07-30T04:53:41.137Z,19.2
2022-07-30T04:54:45.636Z,19.22
2022-07-30T04:55:50.143Z,19.24
2022-07-30T04:56:54.614Z,19.26
2022-07-30T04:58:02.309Z,19.3
2022-07-30T04:59:06.700Z,19.31
2022-07-30T05:00:11.182Z,19.32
2022-07-30T05:01:15.794Z,19.34
2022-07-30T05:02:20.541Z,19.36
2022-07-30T05:03:25.023Z,19.38
2022-07-30T05:04:29.543Z,19.39
2022-07-30T05:05:34.646Z,19.41
2022-07-30T05:06:39.191Z,19.43
2022-07-30T05:07:43.708Z,19.46
2022-07-30T05:08:48.224Z,19.48
2022-07-30T05:09:52.761Z,19.5
2022-07-30T05:10:57.245Z,19.53
2022-07-30T05:12:01.736Z,19.54
2022-07-30T05:13:08.218Z,19.57
2022-07-30T05:14:12.685Z,19.6
2022-07-30T05:15:17.265Z,19.63
2022-07-30T05:16:21.984Z,19.66
2022-07-30T05:17:26.532Z,19.68
2022-07-30T05:18:31.032Z,19.72
2022-07-30T05:19:35.636Z,19.73
2022-07-30T05:20:40.093Z,19.78
2022-07-30T05:21:44.588Z,19.8
2022-07-30T05:22:51.427Z,19.84
2022-07-30T05:23:55.891Z,19.88
2022-07-30T05:25:00.881Z,19.92
2022-07-30T05:26:05.282Z,19.95
2022-07-30T05:27:09.781Z,20.01
2022-07-30T05:28:14.263Z,20.07
2022-07-30T05:29:20.522Z,20.14
2022-07-30T05:30:28.012Z,20.19
2022-07-30T05:31:33.828Z,20.27
2022-07-30T05:32:39.046Z,20.33
2022-07-30T05:33:43.957Z,20.4
2022-07-30T05:34:51.351Z,20.46
2022-07-30T05:35:56.035Z,20.53
2022-07-30T05:37:01.329Z,20.61
2022-07-30T05:38:06.629Z,20.69
2022-07-30T05:39:11.155Z,20.81
2022-07-30T05:40:15.674Z,20.91
2022-07-30T05:41:31.749Z,21.04
2022-07-30T05:42:37.662Z,21.16
2022-07-30T05:43:42.153Z,21.32
2022-07-30T05:44:46.681Z,21.46
2022-07-30T05:45:52.910Z,21.62
2022-07-30T05:47:04.040Z,21.77
2022-07-30T05:48:08.763Z,21.94
2022-07-30T05:49:13.397Z,22.11
2022-07-30T05:50:17.987Z,22.25
2022-07-30T05:51:22.680Z,22.4
2022-07-30T05:52:27.242Z,22.52
2022-07-30T05:53:31.861Z,22.71
2022-07-30T05:54:36.391Z,22.84
2022-07-30T05:55:41.012Z,23
2022-07-30T05:56:45.438Z,23.14
2022-07-30T05:57:50.817Z,23.22
2022-07-30T05:58:55.434Z,23.33
2022-07-30T05:59:59.976Z,23.47
2022-07-30T06:01:04.523Z,23.58
2022-07-30T06:02:09.081Z,23.7
2022-07-30T06:03:15.151Z,23.84
2022-07-30T06:04:19.821Z,23.92
2022-07-30T06:05:25.944Z,24.04
2022-07-30T06:06:30.365Z,24.17
2022-07-30T06:07:34.949Z,24.33
2022-07-30T06:08:39.634Z,24.44
2022-07-30T06:09:44.171Z,24.53
2022-07-30T06:10:48.790Z,24.66
2022-07-30T06:11:57.687Z,24.77
2022-07-30T06:13:02.031Z,24.87
2022-07-30T06:14:06.555Z,24.98
2022-07-30T06:15:11.133Z,25.09
2022-07-30T06:16:15.786Z,25.24
2022-07-30T06:17:20.567Z,25.34
2022-07-30T06:18:25.151Z,25.47
2022-07-30T06:19:29.786Z,25.59
2022-07-30T06:20:38.998Z,25.71
2022-07-30T06:22:01.845Z,25.83
2022-07-30T06:23:07.384Z,25.96
2022-07-30T06:24:11.866Z,26.08
2022-07-30T06:25:18.994Z,26.17
2022-07-30T06:26:23.373Z,26.29
2022-07-30T06:27:36.629Z,26.47
2022-07-30T06:28:44.134Z,26.64
2022-07-30T06:29:48.629Z,26.82
2022-07-30T06:30:53.565Z,26.96
2022-07-30T06:31:58.226Z,27.17
2022-07-30T06:33:02.779Z,27.34
2022-07-30T06:34:07.395Z,27.46
2022-07-30T06:35:11.949Z,27.53
2022-07-30T06:36:16.507Z,27.67
2022-07-30T06:37:58.587Z,27.79
2022-07-30T06:38:44.946Z,27.88
2022-07-30T06:39:58.772Z,27.95
2022-07-30T06:41:04.895Z,28.1
2022-07-30T06:42:09.286Z,28.19
2022-07-30T06:43:13.827Z,28.25
2022-07-30T06:44:18.349Z,28.36
2022-07-30T06:45:23.906Z,28.46
2022-07-30T06:46:28.681Z,28.6
2022-07-30T06:47:33.362Z,28.67
2022-07-30T06:48:37.958Z,28.77
2022-07-30T06:49:42.539Z,28.89
2022-07-30T06:50:47.076Z,28.95
2022-07-30T06:51:51.605Z,29.12
2022-07-30T06:52:56.151Z,29.23
2022-07-30T06:54:00.822Z,29.35
2022-07-30T06:55:05.401Z,29.52
2022-07-30T06:56:09.968Z,29.64
2022-07-30T06:57:14.665Z,29.83
2022-07-30T06:58:25.902Z,29.99
2022-07-30T06:59:30.220Z,30.16
2022-07-30T07:00:34.742Z,30.26
2022-07-30T07:01:39.575Z,30.42
2022-07-30T07:02:44.337Z,30.49
2022-07-30T07:03:48.925Z,30.57
2022-07-30T07:04:53.609Z,30.62
2022-07-30T07:05:58.165Z,30.69
2022-07-30T07:07:13.556Z,30.67
2022-07-30T07:08:19.513Z,30.68
2022-07-30T07:09:28.733Z,30.65
2022-07-30T07:10:33.264Z,30.76
2022-07-30T07:11:37.835Z,30.76
2022-07-30T07:12:42.393Z,30.82
2022-07-30T07:13:46.999Z,30.89
2022-07-30T07:14:51.519Z,30.93
2022-07-30T07:15:56.109Z,31
2022-07-30T07:17:02.336Z,31.26
2022-07-30T07:18:07.724Z,31.48
2022-07-30T07:19:59.217Z,31.74
2022-07-30T07:20:36.556Z,31.92
2022-07-30T07:21:41.091Z,32.28
2022-07-30T07:22:45.751Z,32.43
2022-07-30T07:23:50.341Z,32.69
2022-07-30T07:24:54.953Z,32.99
2022-07-30T07:25:59.543Z,33.11
2022-07-30T07:27:11.593Z,33.33
2022-07-30T07:28:20.241Z,33.57
2022-07-30T07:29:24.799Z,33.78
2022-07-30T07:30:29.596Z,34.02
2022-07-30T07:32:02.840Z,34.26
2022-07-30T07:32:58.234Z,34.49
2022-07-30T07:34:02.807Z,34.66
2022-07-30T07:35:07.465Z,34.93
2022-07-30T07:36:12.508Z,34.95
2022-07-30T07:37:17.054Z,34.98
2022-07-30T07:38:21.645Z,35.1
2022-07-30T07:39:26.225Z,35.27
2022-07-30T07:40:30.825Z,35.41
2022-07-30T07:41:48.570Z,35.45
2022-07-30T07:42:53.788Z,35.75
2022-07-30T07:43:58.313Z,35.88
2022-07-30T07:45:03.137Z,36.02
2022-07-30T07:46:33.311Z,36.08
2022-07-30T07:47:38.176Z,36.26
2022-07-30T07:48:42.743Z,36.25
2022-07-30T07:49:47.291Z,36.38
2022-07-30T07:50:51.819Z,36.64
2022-07-30T07:51:56.316Z,36.56
2022-07-30T07:53:01.101Z,36.59
2022-07-30T07:54:22.764Z,36.59
2022-07-30T07:55:33.879Z,36.86
2022-07-30T07:56:39.756Z,36.93
2022-07-30T07:59:08.532Z,37.33
2022-07-30T08:00:13.010Z,37.4
2022-07-30T08:01:17.957Z,37.42
2022-07-30T08:02:22.828Z,37.37
2022-07-30T08:03:27.543Z,37.52
2022-07-30T08:04:32.169Z,37.62
2022-07-30T08:05:54.089Z,37.83
2022-07-30T08:07:01.784Z,38.01
2022-07-30T08:08:07.022Z,38.17
2022-07-30T08:09:11.574Z,38.26
2022-07-30T08:10:16.441Z,38.2
2022-07-30T08:11:21.014Z,38.33
2022-07-30T08:12:25.612Z,38.5
2022-07-30T08:13:48.180Z,38.45
2022-07-30T08:14:54.017Z,38.6
2022-07-30T08:15:58.557Z,38.69
2022-07-30T08:17:03.991Z,38.8
2022-07-30T08:18:09.329Z,38.58
2022-07-30T08:19:13.870Z,38.79
2022-07-30T08:20:18.526Z,39.09
2022-07-30T08:21:23.125Z,39.13
2022-07-30T08:22:31.218Z,39.14
2022-07-30T08:25:04.084Z,39.02
2022-07-30T08:26:08.558Z,39.18
2022-07-30T08:27:13.369Z,39.15
2022-07-30T08:28:35.650Z,39.29
2022-07-30T08:29:44.705Z,39.49
2022-07-30T08:30:49.136Z,39.59
2022-07-30T08:31:53.751Z,39.6
2022-07-30T08:32:58.482Z,39.58
2022-07-30T08:34:03.111Z,39.75
2022-07-30T08:35:07.657Z,39.79
2022-07-30T08:36:12.581Z,39.99
2022-07-30T08:37:17.211Z,40.07
2022-07-30T08:38:24.008Z,40
2022-07-30T08:39:29.648Z,40.04
2022-07-30T08:40:34.237Z,40.08
2022-07-30T08:41:38.770Z,40.18
2022-07-30T08:42:46.405Z,40.33
2022-07-30T08:43:50.923Z,40.44
2022-07-30T08:44:59.017Z,40.52
2022-07-30T08:46:03.416Z,40.5
2022-07-30T08:47:08.060Z,40.4
2022-07-30T08:48:16.987Z,40.36
2022-07-30T08:49:21.411Z,40.29
2022-07-30T08:50:26.009Z,40.3
2022-07-30T08:51:38.090Z,40.19
2022-07-30T08:52:42.430Z,40.19
2022-07-30T08:53:47.043Z,40.22
2022-07-30T08:54:51.598Z,40.09
2022-07-30T08:55:59.700Z,40.13
2022-07-30T08:57:04.854Z,40.07
2022-07-30T08:58:18.123Z,40.14
2022-07-30T08:59:22.542Z,40.17
2022-07-30T09:00:28.636Z,40.08
2022-07-30T09:01:33.124Z,39.89
2022-07-30T09:02:41.158Z,39.91
2022-07-30T09:03:45.559Z,39.87
2022-07-30T09:04:54.209Z,39.74
2022-07-30T09:06:01.072Z,39.76
2022-07-30T09:07:08.238Z,39.77
2022-07-30T09:08:18.936Z,39.81
2022-07-30T09:09:24.383Z,39.83
2022-07-30T09:10:29.023Z,39.83
2022-07-30T09:11:33.663Z,39.78
2022-07-30T09:12:41.814Z,39.83
2022-07-30T09:13:46.254Z,39.9
2022-07-30T09:14:51.944Z,39.89
2022-07-30T09:15:56.442Z,39.86
2022-07-30T09:17:02.007Z,39.84
2022-07-30T09:18:06.942Z,39.8
2022-07-30T09:19:11.501Z,39.61
2022-07-30T09:20:16.074Z,39.64
2022-07-30T09:21:20.681Z,39.58
2022-07-30T09:22:25.305Z,39.64
2022-07-30T09:23:30.148Z,39.58
2022-07-30T09:24:36.309Z,39.61
2022-07-30T09:25:41.317Z,39.47
2022-07-30T09:26:45.911Z,39.4
2022-07-30T09:27:50.496Z,39.43
2022-07-30T09:28:55.053Z,39.43
2022-07-30T09:29:59.743Z,39.54
2022-07-30T09:31:04.919Z,39.53
2022-07-30T09:32:09.819Z,39.5
2022-07-30T09:33:14.464Z,39.61
2022-07-30T09:34:19.076Z,39.69
2022-07-30T09:35:23.810Z,39.68
2022-07-30T09:36:28.417Z,39.71
2022-07-30T09:37:36.502Z,39.69
2022-07-30T09:38:56.674Z,39.53
2022-07-30T09:40:01.989Z,39.51
2022-07-30T09:41:37.487Z,39.5
2022-07-30T09:42:30.567Z,39.48
2022-07-30T09:43:35.099Z,39.48
2022-07-30T09:44:39.652Z,39.55
2022-07-30T09:45:56.927Z,39.53
2022-07-30T09:47:03.950Z,39.57
2022-07-30T09:48:08.438Z,39.58
2022-07-30T09:49:13.288Z,39.69
2022-07-30T09:50:29.273Z,39.7
2022-07-30T09:51:54.866Z,39.71
2022-07-30T09:52:59.096Z,39.78
2022-07-30T09:54:09.621Z,39.63
2022-07-30T09:55:14.063Z,39.67
2022-07-30T09:56:18.602Z,39.65
2022-07-30T09:57:28.792Z,39.59
2022-07-30T09:58:33.134Z,39.54
2022-07-30T09:59:37.740Z,39.51
2022-07-30T10:00:42.941Z,39.46
2022-07-30T10:02:03.885Z,39.4
2022-07-30T10:03:33.451Z,39.38
2022-07-30T10:04:40.622Z,39.38
2022-07-30T10:05:44.989Z,39.39
2022-07-30T10:06:51.798Z,39.39
2022-07-30T10:07:57.123Z,39.36
2022-07-30T10:09:13.838Z,39.31
2022-07-30T10:10:20.955Z,39.17
2022-07-30T10:11:25.460Z,39.01
2022-07-30T10:12:30.909Z,38.92
2022-07-30T10:13:35.428Z,38.89
2022-07-30T10:14:44.026Z,38.87
2022-07-30T10:15:48.894Z,38.78
2022-07-30T10:16:59.504Z,38.67
2022-07-30T10:18:09.389Z,38.56
2022-07-30T10:19:39.683Z,38.42
2022-07-30T10:20:37.060Z,38.3
2022-07-30T10:21:41.566Z,38.21
2022-07-30T10:22:50.804Z,38.1
2022-07-30T10:23:55.335Z,37.95
2022-07-30T10:24:59.863Z,37.84
2022-07-30T10:26:04.602Z,37.76
2022-07-30T10:27:13.098Z,37.66
2022-07-30T10:28:18.234Z,37.55
2022-07-30T10:29:33.920Z,37.55
2022-07-30T10:30:39.891Z,37.55
2022-07-30T10:31:54.708Z,37.5
2022-07-30T10:33:01.859Z,37.56
2022-07-30T10:34:07.630Z,37.52
2022-07-30T10:35:31.462Z,37.45
2022-07-30T10:36:36.158Z,37.44
2022-07-30T10:37:41.063Z,37.39
2022-07-30T10:38:53.221Z,37.35
2022-07-30T10:39:57.978Z,37.3
2022-07-30T10:41:04.841Z,37.29
2022-07-30T10:42:09.995Z,37.29
2022-07-30T10:43:18.041Z,37.31
2022-07-30T10:44:23.111Z,37.31
2022-07-30T10:45:28.026Z,37.35
2022-07-30T10:46:32.662Z,37.38
2022-07-30T10:47:50.944Z,37.41
2022-07-30T10:48:57.785Z,37.43
2022-07-30T10:50:02.260Z,37.44
2022-07-30T10:51:08.592Z,37.37
2022-07-30T10:52:13.047Z,37.38
2022-07-30T10:53:20.266Z,37.36
2022-07-30T10:54:24.697Z,37.32
2022-07-30T10:55:39.477Z,37.15
2022-07-30T10:56:44.839Z,36.94
2022-07-30T10:57:52.471Z,36.66
2022-07-30T10:58:56.828Z,36.71
2022-07-30T11:00:04.571Z,36.77
2022-07-30T11:01:18.775Z,36.8
2022-07-30T11:02:23.551Z,36.82
2022-07-30T11:03:40.906Z,36.86
2022-07-30T11:04:49.898Z,36.93
2022-07-30T11:05:55.861Z,36.99
2022-07-30T11:07:00.718Z,37.06
2022-07-30T11:08:08.626Z,37.11
2022-07-30T11:09:13.190Z,37.12
2022-07-30T11:10:17.788Z,37.1
2022-07-30T11:11:59.911Z,37.05
2022-07-30T11:12:53.189Z,37.02
2022-07-30T11:13:57.671Z,37.01
2022-07-30T11:15:18.832Z,37.09
2022-07-30T11:16:23.356Z,37.11
2022-07-30T11:17:32.151Z,37.06
2022-07-30T11:18:39.161Z,36.91
2022-07-30T11:19:59.154Z,36.62
2022-07-30T11:21:06.253Z,36.28
2022-07-30T11:22:11.360Z,36.09
2022-07-30T11:23:15.881Z,35.93
2022-07-30T11:24:22.427Z,35.78
2022-07-30T11:25:38.923Z,35.61
2022-07-30T11:26:50.701Z,35.46
2022-07-30T11:27:55.303Z,35.37
2022-07-30T11:29:00.286Z,35.31
2022-07-30T11:30:04.835Z,35.27
2022-07-30T11:31:10.761Z,35.19
2022-07-30T11:32:15.938Z,35.09
2022-07-30T11:33:32.413Z,34.98
2022-07-30T11:34:38.807Z,34.86
2022-07-30T11:35:43.158Z,34.79
2022-07-30T11:36:49.318Z,34.74
2022-07-30T11:37:55.985Z,34.69
2022-07-30T11:39:07.740Z,34.66
2022-07-30T11:40:12.002Z,34.61
2022-07-30T11:41:16.533Z,34.58
2022-07-30T11:42:21.114Z,34.53
2022-07-30T11:43:36.890Z,34.48
2022-07-30T11:44:41.378Z,34.46
2022-07-30T11:45:46.661Z,34.44
2022-07-30T11:46:52.254Z,34.44
2022-07-30T11:47:56.727Z,34.46
2022-07-30T11:49:01.465Z,34.45
2022-07-30T11:50:06.243Z,34.44
2022-07-30T11:51:10.808Z,34.45
2022-07-30T11:52:15.388Z,34.45
2022-07-30T11:53:21.205Z,34.46
2022-07-30T11:54:25.784Z,34.44
2022-07-30T11:55:30.321Z,34.43
2022-07-30T11:56:34.915Z,34.4
2022-07-30T11:57:39.445Z,34.37
2022-07-30T11:58:43.985Z,34.35
2022-07-30T11:59:52.062Z,34.32
2022-07-30T12:00:56.494Z,34.28
2022-07-30T12:02:02.632Z,34.24
2022-07-30T12:03:07.412Z,34.2
2022-07-30T12:04:11.988Z,34.19
2022-07-30T12:05:16.536Z,34.16
2022-07-30T12:06:21.135Z,34.08
2022-07-30T12:07:25.764Z,34.05
2022-07-30T12:08:36.587Z,33.98
2022-07-30T12:09:44.035Z,33.96
2022-07-30T12:10:48.414Z,33.94
2022-07-30T12:11:53.581Z,33.94
2022-07-30T12:12:58.078Z,33.89
2022-07-30T12:14:02.644Z,33.87
2022-07-30T12:15:07.230Z,33.8
2022-07-30T12:16:11.715Z,33.71
2022-07-30T12:17:16.337Z,33.64
2022-07-30T12:18:27.342Z,33.6
2022-07-30T12:19:47.643Z,33.56
2022-07-30T12:20:52.264Z,33.55
2022-07-30T12:21:56.769Z,33.53
2022-07-30T12:23:01.306Z,33.5
2022-07-30T12:24:05.963Z,33.5
2022-07-30T12:25:18.985Z,33.47
2022-07-30T12:26:27.199Z,33.44
2022-07-30T12:27:31.698Z,33.41
2022-07-30T12:28:36.237Z,33.39
2022-07-30T12:29:40.851Z,33.36
2022-07-30T12:30:46.496Z,33.32
2022-07-30T12:31:51.051Z,33.26
2022-07-30T12:32:55.597Z,33.25
2022-07-30T12:34:10.227Z,33.21
2022-07-30T12:35:14.420Z,33.18
2022-07-30T12:36:18.929Z,33.16
2022-07-30T12:37:34.977Z,33.15
2022-07-30T12:38:39.552Z,33.14
2022-07-30T12:39:44.064Z,33.12
2022-07-30T12:40:49.998Z,33.1
2022-07-30T12:41:54.456Z,33.07
2022-07-30T12:42:59.011Z,33.02
2022-07-30T12:44:03.574Z,32.99
2022-07-30T12:45:08.087Z,32.97
2022-07-30T12:46:15.457Z,32.97
2022-07-30T12:47:23.291Z,32.98
2022-07-30T12:48:30.021Z,32.97
2022-07-30T12:49:49.518Z,32.95
2022-07-30T12:50:57.347Z,32.94
2022-07-30T12:52:02.262Z,32.94
2022-07-30T12:53:06.696Z,32.93
2022-07-30T12:54:11.240Z,32.89
2022-07-30T12:55:15.778Z,32.87
2022-07-30T12:56:20.424Z,32.83
2022-07-30T12:57:24.997Z,32.79
2022-07-30T12:58:32.415Z,32.72
2022-07-30T12:59:42.303Z,32.66
2022-07-30T13:00:49.420Z,32.59
2022-07-30T13:01:56.986Z,32.51
2022-07-30T13:03:01.572Z,32.45
2022-07-30T13:04:06.091Z,32.39
2022-07-30T13:05:12.415Z,32.31
2022-07-30T13:06:16.827Z,32.23
2022-07-30T13:07:21.357Z,32.17
2022-07-30T13:08:25.918Z,32.13
2022-07-30T13:09:30.447Z,32.08
2022-07-30T13:10:35.104Z,32.08
2022-07-30T13:11:39.651Z,32.06
2022-07-30T13:12:44.185Z,32.02
2022-07-30T13:13:48.753Z,32.04
2022-07-30T13:14:53.341Z,32.04
2022-07-30T13:15:57.949Z,32.03
2022-07-30T13:17:05.894Z,32.06
2022-07-30T13:18:13.931Z,32.08
2022-07-30T13:19:18.343Z,32.1
2022-07-30T13:20:23.367Z,32.13
2022-07-30T13:21:27.992Z,32.14
2022-07-30T13:22:32.566Z,32.17
2022-07-30T13:23:37.108Z,32.18
2022-07-30T13:24:41.711Z,32.18
2022-07-30T13:25:46.244Z,32.12
2022-07-30T13:26:55.761Z,32.05
2022-07-30T13:28:00.374Z,31.98
2022-07-30T13:29:05.017Z,32.01
2022-07-30T13:30:10.103Z,32.02
2022-07-30T13:31:14.699Z,32.03
2022-07-30T13:32:19.243Z,32.02
2022-07-30T13:33:23.790Z,32.03
2022-07-30T13:34:28.404Z,32.04
2022-07-30T13:35:33.293Z,32.04
2022-07-30T13:36:37.841Z,32.05
2022-07-30T13:37:42.421Z,32.05
2022-07-30T13:38:52.643Z,32.04
2022-07-30T13:39:57.014Z,32.04
2022-07-30T13:41:03.365Z,32.03
2022-07-30T13:42:07.848Z,32.02
2022-07-30T13:43:12.400Z,31.98
2022-07-30T13:44:16.957Z,31.97
2022-07-30T13:45:21.500Z,31.96
2022-07-30T13:46:26.093Z,31.92
2022-07-30T13:47:30.911Z,31.9
2022-07-30T13:48:35.423Z,31.88
2022-07-30T13:49:40.014Z,31.85
2022-07-30T13:50:44.786Z,31.84
2022-07-30T13:51:49.641Z,31.8
2022-07-30T13:53:02.836Z,31.77
2022-07-30T13:54:07.416Z,31.78
2022-07-30T13:55:11.969Z,31.78
2022-07-30T13:56:20.723Z,31.74
2022-07-30T13:57:25.624Z,31.74
2022-07-30T13:58:36.350Z,31.75
2022-07-30T13:59:40.634Z,31.77
2022-07-30T14:00:45.138Z,31.77
2022-07-30T14:01:49.795Z,31.76
2022-07-30T14:02:57.980Z,31.76
2022-07-30T14:04:02.464Z,31.74
2022-07-30T14:05:07.007Z,31.72
2022-07-30T14:06:11.777Z,31.69
2022-07-30T14:07:16.376Z,31.66
2022-07-30T14:08:20.917Z,31.63
2022-07-30T14:09:25.442Z,31.6
2022-07-30T14:10:29.961Z,31.58
2022-07-30T14:11:34.498Z,31.55
2022-07-30T14:12:39.197Z,31.55
2022-07-30T14:13:43.838Z,31.53
2022-07-30T14:14:48.379Z,31.5
2022-07-30T14:15:52.924Z,31.5
2022-07-30T14:16:57.504Z,31.48
2022-07-30T14:18:02.024Z,31.45
2022-07-30T14:19:06.575Z,31.44
2022-07-30T14:20:11.100Z,31.4